sensor_id;sensor_type;location;lat;lon;timestamp;P1;durP1;ratioP1;P2;durP2;ratioP2
29812;SDS011;16707;48.106;11.548;2022-07-03T00:01:10;9.05;;;7.60;;
29812;SDS011;16707;48.106;11.548;2022-07-03T00:03:38;8.82;;;7.78;;
29812;SDS011;16707;48.106;11.548;2022-07-03T00:06:05;11.32;;;8.15;;
29812;SDS011;16707;48.106;11.548;2022-07-03T00:08:46;9.35;;;7.50;;
29812;SDS011;16707;48.106;11.548;2022-07-03T00:11:13;8.70;;;7.80;;
29812;SDS011;16707;48.106;11.548;2022-07-03T00:13:41;8.82;;;7.57;;
29812;SDS011;16707;48.106;11.548;2022-07-03T00:16:11;9.73;;;8.15;;
29812;SDS011;16707;48.106;11.548;2022-07-03T00:18:38;8.75;;;7.85;;
29812;SDS011;16707;48.106;11.548;2022-07-03T00:21:08;9.27;;;8.25;;
29812;SDS011;16707;48.106;11.548;2022-07-03T00:23:43;8.27;;;7.35;;
29812;SDS011;16707;48.106;11.548;2022-07-03T00:26:13;9.20;;;7.93;;
29812;SDS011;16707;48.106;11.548;2022-07-03T00:28:43;8.55;;;7.53;;
29812;SDS011;16707;48.106;11.548;2022-07-03T00:31:12;10.98;;;8.05;;
29812;SDS011;16707;48.106;11.548;2022-07-03T00:33:41;8.48;;;6.80;;
29812;SDS011;16707;48.106;11.548;2022-07-03T00:36:16;9.82;;;7.32;;
29812;SDS011;16707;48.106;11.548;2022-07-03T00:38:46;9.20;;;7.40;;
29812;SDS011;16707;48.106;11.548;2022-07-03T00:41:23;8.13;;;6.82;;
29812;SDS011;16707;48.106;11.548;2022-07-03T00:43:56;7.65;;;6.85;;
29812;SDS011;16707;48.106;11.548;2022-07-03T00:46:25;8.85;;;7.10;;
29812;SDS011;16707;48.106;11.548;2022-07-03T00:48:54;7.43;;;6.32;;
29812;SDS011;16707;48.106;11.548;2022-07-03T00:51:28;6.82;;;5.82;;
29812;SDS011;16707;48.106;11.548;2022-07-03T00:53:56;6.57;;;5.28;;
29812;SDS011;16707;48.106;11.548;2022-07-03T00:56:27;6.20;;;5.57;;
29812;SDS011;16707;48.106;11.548;2022-07-03T00:58:57;6.72;;;5.68;;
29812;SDS011;16707;48.106;11.548;2022-07-03T01:01:28;7.97;;;6.07;;
29812;SDS011;16707;48.106;11.548;2022-07-03T01:04:03;7.50;;;5.82;;
29812;SDS011;16707;48.106;11.548;2022-07-03T01:06:46;6.43;;;5.60;;
29812;SDS011;16707;48.106;11.548;2022-07-03T01:09:21;6.10;;;5.47;;
29812;SDS011;16707;48.106;11.548;2022-07-03T01:11:58;6.60;;;5.88;;
29812;SDS011;16707;48.106;11.548;2022-07-03T01:14:32;5.65;;;4.95;;
29812;SDS011;16707;48.106;11.548;2022-07-03T01:17:12;7.43;;;5.55;;
29812;SDS011;16707;48.106;11.548;2022-07-03T01:19:48;5.82;;;5.00;;
29812;SDS011;16707;48.106;11.548;2022-07-03T01:22:25;6.68;;;5.38;;
29812;SDS011;16707;48.106;11.548;2022-07-03T01:25:04;6.72;;;5.38;;
29812;SDS011;16707;48.106;11.548;2022-07-03T01:27:52;6.53;;;5.22;;
29812;SDS011;16707;48.106;11.548;2022-07-03T01:30:25;5.90;;;4.85;;
29812;SDS011;16707;48.106;11.548;2022-07-03T01:32:56;5.88;;;5.20;;
29812;SDS011;16707;48.106;11.548;2022-07-03T01:35:31;6.15;;;5.47;;
29812;SDS011;16707;48.106;11.548;2022-07-03T01:38:04;5.95;;;5.35;;
29812;SDS011;16707;48.106;11.548;2022-07-03T01:40:39;5.30;;;4.78;;
29812;SDS011;16707;48.106;11.548;2022-07-03T01:43:10;6.47;;;5.32;;
29812;SDS011;16707;48.106;11.548;2022-07-03T01:45:39;5.78;;;4.72;;
29812;SDS011;16707;48.106;11.548;2022-07-03T01:48:18;5.40;;;4.90;;
29812;SDS011;16707;48.106;11.548;2022-07-03T01:50:48;5.22;;;4.68;;
29812;SDS011;16707;48.106;11.548;2022-07-03T01:53:16;6.15;;;4.95;;
29812;SDS011;16707;48.106;11.548;2022-07-03T01:55:44;5.88;;;4.68;;
29812;SDS011;16707;48.106;11.548;2022-07-03T01:58:21;5.20;;;4.70;;
29812;SDS011;16707;48.106;11.548;2022-07-03T02:00:51;4.97;;;4.40;;
29812;SDS011;16707;48.106;11.548;2022-07-03T02:03:30;6.53;;;4.35;;
29812;SDS011;16707;48.106;11.548;2022-07-03T02:06:05;5.88;;;4.78;;
29812;SDS011;16707;48.106;11.548;2022-07-03T02:08:43;4.75;;;4.25;;
29812;SDS011;16707;48.106;11.548;2022-07-03T02:11:15;5.05;;;4.15;;
29812;SDS011;16707;48.106;11.548;2022-07-03T02:13:49;5.00;;;4.50;;
29812;SDS011;16707;48.106;11.548;2022-07-03T02:16:20;5.35;;;4.80;;
29812;SDS011;16707;48.106;11.548;2022-07-03T02:18:58;8.27;;;4.53;;
29812;SDS011;16707;48.106;11.548;2022-07-03T02:21:45;5.68;;;4.75;;
29812;SDS011;16707;48.106;11.548;2022-07-03T02:24:23;5.28;;;4.43;;
29812;SDS011;16707;48.106;11.548;2022-07-03T02:26:56;4.93;;;4.30;;
29812;SDS011;16707;48.106;11.548;2022-07-03T02:29:33;5.47;;;4.30;;
29812;SDS011;16707;48.106;11.548;2022-07-03T02:32:06;5.13;;;4.60;;
29812;SDS011;16707;48.106;11.548;2022-07-03T02:34:42;4.43;;;3.65;;
29812;SDS011;16707;48.106;11.548;2022-07-03T02:37:15;4.45;;;4.05;;
29812;SDS011;16707;48.106;11.548;2022-07-03T02:39:48;5.53;;;4.22;;
29812;SDS011;16707;48.106;11.548;2022-07-03T02:42:25;4.15;;;3.72;;
29812;SDS011;16707;48.106;11.548;2022-07-03T02:45:06;5.40;;;4.10;;
29812;SDS011;16707;48.106;11.548;2022-07-03T02:47:43;4.43;;;3.97;;
29812;SDS011;16707;48.106;11.548;2022-07-03T02:50:16;6.90;;;4.45;;
29812;SDS011;16707;48.106;11.548;2022-07-03T02:52:56;5.25;;;4.10;;
29812;SDS011;16707;48.106;11.548;2022-07-03T02:55:39;4.95;;;4.35;;
29812;SDS011;16707;48.106;11.548;2022-07-03T03:01:06;4.85;;;3.75;;
29812;SDS011;16707;48.106;11.548;2022-07-03T03:03:56;4.75;;;4.25;;
29812;SDS011;16707;48.106;11.548;2022-07-03T03:06:34;4.68;;;3.97;;
29812;SDS011;16707;48.106;11.548;2022-07-03T03:09:12;5.72;;;4.03;;
29812;SDS011;16707;48.106;11.548;2022-07-03T03:11:45;5.25;;;4.03;;
29812;SDS011;16707;48.106;11.548;2022-07-03T03:14:14;4.68;;;4.10;;
29812;SDS011;16707;48.106;11.548;2022-07-03T03:16:48;4.38;;;3.83;;
29812;SDS011;16707;48.106;11.548;2022-07-03T03:19:19;6.50;;;4.38;;
29812;SDS011;16707;48.106;11.548;2022-07-03T03:21:52;4.63;;;4.10;;
29812;SDS011;16707;48.106;11.548;2022-07-03T03:24:34;5.05;;;4.47;;
29812;SDS011;16707;48.106;11.548;2022-07-03T03:27:02;4.72;;;3.92;;
29812;SDS011;16707;48.106;11.548;2022-07-03T03:29:30;7.13;;;4.72;;
29812;SDS011;16707;48.106;11.548;2022-07-03T03:32:02;5.15;;;3.90;;
29812;SDS011;16707;48.106;11.548;2022-07-03T03:34:31;6.22;;;4.45;;
29812;SDS011;16707;48.106;11.548;2022-07-03T03:36:58;5.60;;;4.13;;
29812;SDS011;16707;48.106;11.548;2022-07-03T03:39:26;4.82;;;3.83;;
29812;SDS011;16707;48.106;11.548;2022-07-03T03:41:54;5.25;;;3.92;;
29812;SDS011;16707;48.106;11.548;2022-07-03T03:44:22;4.20;;;3.80;;
29812;SDS011;16707;48.106;11.548;2022-07-03T03:46:50;5.68;;;4.30;;
29812;SDS011;16707;48.106;11.548;2022-07-03T03:49:19;6.75;;;4.28;;
29812;SDS011;16707;48.106;11.548;2022-07-03T03:51:47;6.18;;;4.00;;
29812;SDS011;16707;48.106;11.548;2022-07-03T03:54:14;6.35;;;4.40;;
29812;SDS011;16707;48.106;11.548;2022-07-03T03:56:42;4.57;;;4.18;;
29812;SDS011;16707;48.106;11.548;2022-07-03T03:59:09;4.57;;;4.05;;
29812;SDS011;16707;48.106;11.548;2022-07-03T04:01:36;4.93;;;4.30;;
29812;SDS011;16707;48.106;11.548;2022-07-03T04:04:03;4.50;;;4.10;;
29812;SDS011;16707;48.106;11.548;2022-07-03T04:06:32;5.13;;;3.95;;
29812;SDS011;16707;48.106;11.548;2022-07-03T04:09:00;5.53;;;3.35;;
29812;SDS011;16707;48.106;11.548;2022-07-03T04:11:27;5.25;;;4.18;;
29812;SDS011;16707;48.106;11.548;2022-07-03T04:13:55;4.15;;;3.72;;
29812;SDS011;16707;48.106;11.548;2022-07-03T04:16:22;4.85;;;3.80;;
29812;SDS011;16707;48.106;11.548;2022-07-03T04:18:49;4.50;;;4.05;;
29812;SDS011;16707;48.106;11.548;2022-07-03T04:21:20;4.38;;;3.67;;
29812;SDS011;16707;48.106;11.548;2022-07-03T04:23:49;5.47;;;3.80;;
29812;SDS011;16707;48.106;11.548;2022-07-03T04:26:19;5.55;;;4.25;;
29812;SDS011;16707;48.106;11.548;2022-07-03T04:28:47;5.18;;;3.72;;
29812;SDS011;16707;48.106;11.548;2022-07-03T04:31:18;4.65;;;3.83;;
29812;SDS011;16707;48.106;11.548;2022-07-03T04:33:45;3.80;;;3.38;;
29812;SDS011;16707;48.106;11.548;2022-07-03T04:36:12;4.63;;;4.05;;
29812;SDS011;16707;48.106;11.548;2022-07-03T04:38:46;5.78;;;4.53;;
29812;SDS011;16707;48.106;11.548;2022-07-03T04:41:14;4.93;;;3.90;;
29812;SDS011;16707;48.106;11.548;2022-07-03T04:43:44;5.07;;;3.80;;
29812;SDS011;16707;48.106;11.548;2022-07-03T04:46:15;3.05;;;2.75;;
29812;SDS011;16707;48.106;11.548;2022-07-03T04:48:46;2.97;;;2.63;;
29812;SDS011;16707;48.106;11.548;2022-07-03T04:51:16;3.20;;;2.53;;
29812;SDS011;16707;48.106;11.548;2022-07-03T04:53:43;2.85;;;2.28;;
29812;SDS011;16707;48.106;11.548;2022-07-03T04:56:10;2.80;;;2.40;;
29812;SDS011;16707;48.106;11.548;2022-07-03T04:58:42;2.10;;;1.90;;
29812;SDS011;16707;48.106;11.548;2022-07-03T05:01:12;2.42;;;2.17;;
29812;SDS011;16707;48.106;11.548;2022-07-03T05:03:42;2.40;;;2.05;;
29812;SDS011;16707;48.106;11.548;2022-07-03T05:06:13;2.50;;;2.20;;
29812;SDS011;16707;48.106;11.548;2022-07-03T05:08:40;2.70;;;2.50;;
29812;SDS011;16707;48.106;11.548;2022-07-03T05:11:13;2.40;;;2.20;;
29812;SDS011;16707;48.106;11.548;2022-07-03T05:13:41;2.25;;;2.05;;
29812;SDS011;16707;48.106;11.548;2022-07-03T05:16:12;2.55;;;2.15;;
29812;SDS011;16707;48.106;11.548;2022-07-03T05:18:42;2.72;;;2.50;;
29812;SDS011;16707;48.106;11.548;2022-07-03T05:21:12;2.47;;;1.98;;
29812;SDS011;16707;48.106;11.548;2022-07-03T05:23:40;2.35;;;2.10;;
29812;SDS011;16707;48.106;11.548;2022-07-03T05:26:12;2.10;;;1.90;;
29812;SDS011;16707;48.106;11.548;2022-07-03T05:28:39;2.30;;;2.10;;
29812;SDS011;16707;48.106;11.548;2022-07-03T05:31:11;2.72;;;1.80;;
29812;SDS011;16707;48.106;11.548;2022-07-03T05:33:38;2.20;;;2.10;;
29812;SDS011;16707;48.106;11.548;2022-07-03T05:36:12;3.17;;;1.98;;
29812;SDS011;16707;48.106;11.548;2022-07-03T05:38:39;1.90;;;1.80;;
29812;SDS011;16707;48.106;11.548;2022-07-03T05:41:26;2.20;;;1.85;;
29812;SDS011;16707;48.106;11.548;2022-07-03T05:43:55;2.30;;;1.88;;
29812;SDS011;16707;48.106;11.548;2022-07-03T05:46:23;3.58;;;1.60;;
29812;SDS011;16707;48.106;11.548;2022-07-03T05:48:51;1.85;;;1.75;;
29812;SDS011;16707;48.106;11.548;2022-07-03T05:51:18;4.97;;;1.95;;
29812;SDS011;16707;48.106;11.548;2022-07-03T05:53:46;2.38;;;2.17;;
29812;SDS011;16707;48.106;11.548;2022-07-03T05:56:20;2.55;;;1.70;;
29812;SDS011;16707;48.106;11.548;2022-07-03T05:58:47;3.10;;;2.30;;
29812;SDS011;16707;48.106;11.548;2022-07-03T06:01:20;1.73;;;1.60;;
29812;SDS011;16707;48.106;11.548;2022-07-03T06:03:49;2.90;;;1.60;;
29812;SDS011;16707;48.106;11.548;2022-07-03T06:06:17;1.88;;;1.77;;
29812;SDS011;16707;48.106;11.548;2022-07-03T06:08:44;1.85;;;1.75;;
29812;SDS011;16707;48.106;11.548;2022-07-03T06:11:12;2.10;;;1.90;;
29812;SDS011;16707;48.106;11.548;2022-07-03T06:13:39;2.35;;;1.80;;
29812;SDS011;16707;48.106;11.548;2022-07-03T06:16:06;1.92;;;1.70;;
29812;SDS011;16707;48.106;11.548;2022-07-03T06:18:41;2.72;;;1.85;;
29812;SDS011;16707;48.106;11.548;2022-07-03T06:21:12;2.00;;;1.90;;
29812;SDS011;16707;48.106;11.548;2022-07-03T06:23:39;2.47;;;1.75;;
29812;SDS011;16707;48.106;11.548;2022-07-03T06:26:12;1.88;;;1.60;;
29812;SDS011;16707;48.106;11.548;2022-07-03T06:28:40;3.67;;;1.83;;
29812;SDS011;16707;48.106;11.548;2022-07-03T06:31:11;1.60;;;1.50;;
29812;SDS011;16707;48.106;11.548;2022-07-03T06:33:38;2.08;;;1.98;;
29812;SDS011;16707;48.106;11.548;2022-07-03T06:36:16;1.60;;;1.50;;
29812;SDS011;16707;48.106;11.548;2022-07-03T06:38:49;1.60;;;1.50;;
29812;SDS011;16707;48.106;11.548;2022-07-03T06:41:16;3.10;;;1.67;;
29812;SDS011;16707;48.106;11.548;2022-07-03T06:43:43;2.63;;;1.90;;
29812;SDS011;16707;48.106;11.548;2022-07-03T06:46:11;1.92;;;1.80;;
29812;SDS011;16707;48.106;11.548;2022-07-03T06:48:39;1.60;;;1.50;;
29812;SDS011;16707;48.106;11.548;2022-07-03T06:51:12;1.40;;;1.30;;
29812;SDS011;16707;48.106;11.548;2022-07-03T06:53:41;1.25;;;1.20;;
29812;SDS011;16707;48.106;11.548;2022-07-03T06:58:39;1.50;;;1.40;;
29812;SDS011;16707;48.106;11.548;2022-07-03T07:01:06;1.90;;;1.33;;
29812;SDS011;16707;48.106;11.548;2022-07-03T07:03:41;1.60;;;1.50;;
29812;SDS011;16707;48.106;11.548;2022-07-03T07:06:11;1.50;;;1.40;;
29812;SDS011;16707;48.106;11.548;2022-07-03T07:08:46;1.42;;;1.33;;
29812;SDS011;16707;48.106;11.548;2022-07-03T07:11:23;3.60;;;1.75;;
29812;SDS011;16707;48.106;11.548;2022-07-03T07:13:52;1.60;;;1.50;;
29812;SDS011;16707;48.106;11.548;2022-07-03T07:16:19;1.60;;;1.50;;
29812;SDS011;16707;48.106;11.548;2022-07-03T07:18:49;2.00;;;1.40;;
29812;SDS011;16707;48.106;11.548;2022-07-03T07:21:17;4.35;;;1.90;;
29812;SDS011;16707;48.106;11.548;2022-07-03T07:23:46;1.48;;;1.38;;
29812;SDS011;16707;48.106;11.548;2022-07-03T07:26:13;1.50;;;1.40;;
29812;SDS011;16707;48.106;11.548;2022-07-03T07:28:41;1.58;;;1.48;;
29812;SDS011;16707;48.106;11.548;2022-07-03T07:31:11;1.75;;;1.65;;
29812;SDS011;16707;48.106;11.548;2022-07-03T07:33:46;2.20;;;1.80;;
29812;SDS011;16707;48.106;11.548;2022-07-03T07:36:14;2.17;;;1.67;;
29812;SDS011;16707;48.106;11.548;2022-07-03T07:38:42;1.70;;;1.50;;
29812;SDS011;16707;48.106;11.548;2022-07-03T07:41:14;2.05;;;1.65;;
29812;SDS011;16707;48.106;11.548;2022-07-03T07:43:41;1.83;;;1.73;;
29812;SDS011;16707;48.106;11.548;2022-07-03T07:46:12;2.00;;;1.75;;
29812;SDS011;16707;48.106;11.548;2022-07-03T07:48:41;1.77;;;1.52;;
29812;SDS011;16707;48.106;11.548;2022-07-03T07:51:12;2.88;;;1.83;;
29812;SDS011;16707;48.106;11.548;2022-07-03T07:53:41;1.90;;;1.80;;
29812;SDS011;16707;48.106;11.548;2022-07-03T07:56:11;2.15;;;1.92;;
29812;SDS011;16707;48.106;11.548;2022-07-03T07:58:40;2.13;;;2.00;;
29812;SDS011;16707;48.106;11.548;2022-07-03T08:01:13;1.90;;;1.80;;
29812;SDS011;16707;48.106;11.548;2022-07-03T08:03:58;2.60;;;1.85;;
29812;SDS011;16707;48.106;11.548;2022-07-03T08:06:43;2.08;;;1.98;;
29812;SDS011;16707;48.106;11.548;2022-07-03T08:09:10;1.98;;;1.88;;
29812;SDS011;16707;48.106;11.548;2022-07-03T08:11:41;2.10;;;1.70;;
29812;SDS011;16707;48.106;11.548;2022-07-03T08:14:10;2.22;;;1.80;;
29812;SDS011;16707;48.106;11.548;2022-07-03T08:16:38;2.15;;;1.95;;
29812;SDS011;16707;48.106;11.548;2022-07-03T08:19:06;1.70;;;1.60;;
29812;SDS011;16707;48.106;11.548;2022-07-03T08:21:34;1.83;;;1.70;;
29812;SDS011;16707;48.106;11.548;2022-07-03T08:24:07;1.77;;;1.67;;
29812;SDS011;16707;48.106;11.548;2022-07-03T08:26:36;1.73;;;1.63;;
29812;SDS011;16707;48.106;11.548;2022-07-03T08:29:04;2.08;;;1.80;;
29812;SDS011;16707;48.106;11.548;2022-07-03T08:31:37;3.65;;;1.88;;
29812;SDS011;16707;48.106;11.548;2022-07-03T08:34:08;1.75;;;1.65;;
29812;SDS011;16707;48.106;11.548;2022-07-03T08:36:39;3.10;;;1.70;;
29812;SDS011;16707;48.106;11.548;2022-07-03T08:39:11;2.83;;;1.73;;
29812;SDS011;16707;48.106;11.548;2022-07-03T08:41:40;2.78;;;1.67;;
29812;SDS011;16707;48.106;11.548;2022-07-03T08:44:08;2.38;;;1.80;;
29812;SDS011;16707;48.106;11.548;2022-07-03T08:46:41;2.30;;;1.70;;
29812;SDS011;16707;48.106;11.548;2022-07-03T08:49:13;1.58;;;1.48;;
29812;SDS011;16707;48.106;11.548;2022-07-03T08:51:42;1.75;;;1.65;;
29812;SDS011;16707;48.106;11.548;2022-07-03T08:54:11;3.20;;;1.88;;
29812;SDS011;16707;48.106;11.548;2022-07-03T08:56:45;1.88;;;1.77;;
29812;SDS011;16707;48.106;11.548;2022-07-03T08:59:13;1.85;;;1.75;;
29812;SDS011;16707;48.106;11.548;2022-07-03T09:01:45;1.63;;;1.52;;
29812;SDS011;16707;48.106;11.548;2022-07-03T09:04:13;2.95;;;1.70;;
29812;SDS011;16707;48.106;11.548;2022-07-03T09:06:43;1.70;;;1.60;;
29812;SDS011;16707;48.106;11.548;2022-07-03T09:09:10;3.85;;;2.78;;
29812;SDS011;16707;48.106;11.548;2022-07-03T09:11:38;4.85;;;4.38;;
29812;SDS011;16707;48.106;11.548;2022-07-03T09:14:06;1.95;;;1.55;;
29812;SDS011;16707;48.106;11.548;2022-07-03T09:16:36;2.20;;;1.50;;
29812;SDS011;16707;48.106;11.548;2022-07-03T09:19:08;1.85;;;1.38;;
29812;SDS011;16707;48.106;11.548;2022-07-03T09:21:36;1.70;;;1.38;;
29812;SDS011;16707;48.106;11.548;2022-07-03T09:24:04;1.70;;;1.60;;
29812;SDS011;16707;48.106;11.548;2022-07-03T09:26:36;1.50;;;1.40;;
29812;SDS011;16707;48.106;11.548;2022-07-03T09:29:17;2.33;;;1.38;;
29812;SDS011;16707;48.106;11.548;2022-07-03T09:31:53;1.25;;;1.23;;
29812;SDS011;16707;48.106;11.548;2022-07-03T09:34:23;1.55;;;1.45;;
29812;SDS011;16707;48.106;11.548;2022-07-03T09:36:54;1.38;;;1.23;;
29812;SDS011;16707;48.106;11.548;2022-07-03T09:39:25;1.52;;;1.25;;
29812;SDS011;16707;48.106;11.548;2022-07-03T09:41:57;2.28;;;1.50;;
29812;SDS011;16707;48.106;11.548;2022-07-03T09:44:29;1.30;;;1.20;;
29812;SDS011;16707;48.106;11.548;2022-07-03T09:47:08;3.30;;;1.30;;
29812;SDS011;16707;48.106;11.548;2022-07-03T09:49:49;1.70;;;1.27;;
29812;SDS011;16707;48.106;11.548;2022-07-03T09:52:26;1.30;;;1.20;;
29812;SDS011;16707;48.106;11.548;2022-07-03T09:55:00;1.98;;;1.30;;
29812;SDS011;16707;48.106;11.548;2022-07-03T09:57:30;1.65;;;0.98;;
29812;SDS011;16707;48.106;11.548;2022-07-03T10:00:16;1.88;;;1.20;;
29812;SDS011;16707;48.106;11.548;2022-07-03T10:02:54;1.48;;;1.20;;
29812;SDS011;16707;48.106;11.548;2022-07-03T10:05:30;1.00;;;1.00;;
29812;SDS011;16707;48.106;11.548;2022-07-03T10:08:06;1.00;;;1.00;;
29812;SDS011;16707;48.106;11.548;2022-07-03T10:10:36;1.15;;;1.08;;
29812;SDS011;16707;48.106;11.548;2022-07-03T10:13:06;1.52;;;1.20;;
29812;SDS011;16707;48.106;11.548;2022-07-03T10:15:34;1.30;;;1.20;;
29812;SDS011;16707;48.106;11.548;2022-07-03T10:18:04;3.95;;;3.63;;
29812;SDS011;16707;48.106;11.548;2022-07-03T10:20:39;1.55;;;1.13;;
29812;SDS011;16707;48.106;11.548;2022-07-03T10:23:07;1.13;;;1.02;;
29812;SDS011;16707;48.106;11.548;2022-07-03T10:25:36;1.40;;;1.30;;
29812;SDS011;16707;48.106;11.548;2022-07-03T10:28:07;1.20;;;1.10;;
29812;SDS011;16707;48.106;11.548;2022-07-03T10:30:37;2.08;;;1.15;;
29812;SDS011;16707;48.106;11.548;2022-07-03T10:33:09;1.98;;;0.90;;
29812;SDS011;16707;48.106;11.548;2022-07-03T10:35:39;1.33;;;0.90;;
29812;SDS011;16707;48.106;11.548;2022-07-03T10:38:13;1.25;;;0.80;;
29812;SDS011;16707;48.106;11.548;2022-07-03T10:41:06;0.70;;;0.70;;
29812;SDS011;16707;48.106;11.548;2022-07-03T10:44:03;1.00;;;1.00;;
29812;SDS011;16707;48.106;11.548;2022-07-03T10:46:50;0.95;;;0.90;;
29812;SDS011;16707;48.106;11.548;2022-07-03T10:49:20;1.42;;;0.90;;
29812;SDS011;16707;48.106;11.548;2022-07-03T10:51:53;1.15;;;0.90;;
29812;SDS011;16707;48.106;11.548;2022-07-03T10:54:24;1.02;;;0.90;;
29812;SDS011;16707;48.106;11.548;2022-07-03T10:57:08;1.15;;;1.10;;
29812;SDS011;16707;48.106;11.548;2022-07-03T10:59:55;1.00;;;0.90;;
29812;SDS011;16707;48.106;11.548;2022-07-03T11:02:42;2.25;;;1.10;;
29812;SDS011;16707;48.106;11.548;2022-07-03T11:10:45;2.05;;;1.25;;
29812;SDS011;16707;48.106;11.548;2022-07-03T11:13:36;1.38;;;0.82;;
29812;SDS011;16707;48.106;11.548;2022-07-03T11:16:24;1.38;;;0.85;;
29812;SDS011;16707;48.106;11.548;2022-07-03T11:18:56;1.58;;;0.93;;
29812;SDS011;16707;48.106;11.548;2022-07-03T11:21:27;1.38;;;0.82;;
29812;SDS011;16707;48.106;11.548;2022-07-03T11:27:11;1.27;;;0.80;;
29812;SDS011;16707;48.106;11.548;2022-07-03T11:29:55;0.80;;;0.80;;
29812;SDS011;16707;48.106;11.548;2022-07-03T11:38:20;2.00;;;1.00;;
29812;SDS011;16707;48.106;11.548;2022-07-03T11:40:55;2.72;;;0.98;;
29812;SDS011;16707;48.106;11.548;2022-07-03T11:43:28;1.63;;;1.00;;
29812;SDS011;16707;48.106;11.548;2022-07-03T11:45:59;1.02;;;0.93;;
29812;SDS011;16707;48.106;11.548;2022-07-03T11:48:28;0.80;;;0.80;;
29812;SDS011;16707;48.106;11.548;2022-07-03T11:51:05;1.20;;;1.10;;
29812;SDS011;16707;48.106;11.548;2022-07-03T11:53:39;1.15;;;1.00;;
29812;SDS011;16707;48.106;11.548;2022-07-03T11:56:15;0.82;;;0.82;;
29812;SDS011;16707;48.106;11.548;2022-07-03T11:58:43;0.93;;;0.90;;
29812;SDS011;16707;48.106;11.548;2022-07-03T12:01:12;0.90;;;0.90;;
29812;SDS011;16707;48.106;11.548;2022-07-03T12:04:03;1.45;;;1.10;;
29812;SDS011;16707;48.106;11.548;2022-07-03T12:10:00;1.33;;;1.00;;
29812;SDS011;16707;48.106;11.548;2022-07-03T12:12:29;0.77;;;0.70;;
29812;SDS011;16707;48.106;11.548;2022-07-03T12:15:07;1.33;;;0.80;;
29812;SDS011;16707;48.106;11.548;2022-07-03T12:17:43;1.67;;;1.17;;
29812;SDS011;16707;48.106;11.548;2022-07-03T12:20:12;1.25;;;1.15;;
29812;SDS011;16707;48.106;11.548;2022-07-03T12:22:39;1.20;;;1.10;;
29812;SDS011;16707;48.106;11.548;2022-07-03T12:25:07;1.10;;;1.00;;
29812;SDS011;16707;48.106;11.548;2022-07-03T12:27:38;3.45;;;1.20;;
29812;SDS011;16707;48.106;11.548;2022-07-03T12:30:08;2.42;;;1.05;;
29812;SDS011;16707;48.106;11.548;2022-07-03T12:32:37;1.75;;;1.10;;
29812;SDS011;16707;48.106;11.548;2022-07-03T12:35:06;1.92;;;1.10;;
29812;SDS011;16707;48.106;11.548;2022-07-03T12:37:34;1.75;;;1.15;;
29812;SDS011;16707;48.106;11.548;2022-07-03T12:40:06;0.98;;;0.98;;
29812;SDS011;16707;48.106;11.548;2022-07-03T12:42:43;1.23;;;1.13;;
29812;SDS011;16707;48.106;11.548;2022-07-03T12:45:12;2.70;;;1.00;;
29812;SDS011;16707;48.106;11.548;2022-07-03T12:47:40;2.08;;;1.10;;
29812;SDS011;16707;48.106;11.548;2022-07-03T12:50:08;1.10;;;1.02;;
29812;SDS011;16707;48.106;11.548;2022-07-03T12:52:48;2.35;;;1.30;;
29812;SDS011;16707;48.106;11.548;2022-07-03T12:55:24;1.67;;;1.20;;
29812;SDS011;16707;48.106;11.548;2022-07-03T12:58:13;1.25;;;1.15;;
29812;SDS011;16707;48.106;11.548;2022-07-03T13:01:00;1.38;;;1.13;;
29812;SDS011;16707;48.106;11.548;2022-07-03T13:03:29;1.35;;;1.25;;
29812;SDS011;16707;48.106;11.548;2022-07-03T13:05:58;1.35;;;1.00;;
29812;SDS011;16707;48.106;11.548;2022-07-03T13:08:26;1.33;;;1.20;;
29812;SDS011;16707;48.106;11.548;2022-07-03T13:10:55;0.98;;;0.98;;
29812;SDS011;16707;48.106;11.548;2022-07-03T13:13:25;1.58;;;1.30;;
29812;SDS011;16707;48.106;11.548;2022-07-03T13:15:52;1.65;;;1.55;;
29812;SDS011;16707;48.106;11.548;2022-07-03T13:18:23;1.65;;;1.10;;
29812;SDS011;16707;48.106;11.548;2022-07-03T13:20:50;1.52;;;1.42;;
29812;SDS011;16707;48.106;11.548;2022-07-03T13:23:18;1.35;;;1.10;;
29812;SDS011;16707;48.106;11.548;2022-07-03T13:25:45;1.55;;;1.30;;
29812;SDS011;16707;48.106;11.548;2022-07-03T13:28:14;1.63;;;1.20;;
29812;SDS011;16707;48.106;11.548;2022-07-03T13:30:45;1.65;;;1.20;;
29812;SDS011;16707;48.106;11.548;2022-07-03T13:33:16;1.30;;;1.20;;
29812;SDS011;16707;48.106;11.548;2022-07-03T13:35:43;2.70;;;1.20;;
29812;SDS011;16707;48.106;11.548;2022-07-03T13:38:14;1.25;;;1.10;;
29812;SDS011;16707;48.106;11.548;2022-07-03T13:40:41;2.20;;;1.40;;
29812;SDS011;16707;48.106;11.548;2022-07-03T13:43:12;1.35;;;0.98;;
29812;SDS011;16707;48.106;11.548;2022-07-03T13:45:42;1.60;;;1.30;;
29812;SDS011;16707;48.106;11.548;2022-07-03T13:48:11;1.30;;;1.20;;
29812;SDS011;16707;48.106;11.548;2022-07-03T13:50:39;1.52;;;1.30;;
29812;SDS011;16707;48.106;11.548;2022-07-03T13:53:09;1.70;;;1.60;;
29812;SDS011;16707;48.106;11.548;2022-07-03T13:55:36;2.15;;;1.30;;
29812;SDS011;16707;48.106;11.548;2022-07-03T13:58:06;1.45;;;1.35;;
29812;SDS011;16707;48.106;11.548;2022-07-03T14:00:33;1.48;;;1.35;;
29812;SDS011;16707;48.106;11.548;2022-07-03T14:03:02;2.70;;;1.45;;
29812;SDS011;16707;48.106;11.548;2022-07-03T14:05:33;2.38;;;1.60;;
29812;SDS011;16707;48.106;11.548;2022-07-03T14:08:02;2.22;;;1.40;;
29812;SDS011;16707;48.106;11.548;2022-07-03T14:10:32;1.80;;;1.33;;
29812;SDS011;16707;48.106;11.548;2022-07-03T14:12:59;5.50;;;1.60;;
29812;SDS011;16707;48.106;11.548;2022-07-03T14:15:26;3.28;;;1.50;;
29812;SDS011;16707;48.106;11.548;2022-07-03T14:17:54;1.90;;;1.48;;
29812;SDS011;16707;48.106;11.548;2022-07-03T14:20:26;2.45;;;1.52;;
29812;SDS011;16707;48.106;11.548;2022-07-03T14:22:54;2.83;;;1.40;;
29812;SDS011;16707;48.106;11.548;2022-07-03T14:25:21;1.75;;;1.60;;
29812;SDS011;16707;48.106;11.548;2022-07-03T14:27:48;1.83;;;1.67;;
29812;SDS011;16707;48.106;11.548;2022-07-03T14:30:33;2.42;;;1.45;;
29812;SDS011;16707;48.106;11.548;2022-07-03T14:33:18;3.08;;;1.42;;
29812;SDS011;16707;48.106;11.548;2022-07-03T14:35:47;2.13;;;1.60;;
29812;SDS011;16707;48.106;11.548;2022-07-03T14:38:17;1.60;;;1.50;;
29812;SDS011;16707;48.106;11.548;2022-07-03T14:40:51;3.05;;;1.50;;
29812;SDS011;16707;48.106;11.548;2022-07-03T14:43:26;2.20;;;1.40;;
29812;SDS011;16707;48.106;11.548;2022-07-03T14:48:21;1.77;;;1.50;;
29812;SDS011;16707;48.106;11.548;2022-07-03T14:50:50;1.60;;;1.30;;
29812;SDS011;16707;48.106;11.548;2022-07-03T14:53:18;1.40;;;1.30;;
29812;SDS011;16707;48.106;11.548;2022-07-03T14:55:46;1.90;;;1.50;;
29812;SDS011;16707;48.106;11.548;2022-07-03T14:58:14;1.70;;;1.60;;
29812;SDS011;16707;48.106;11.548;2022-07-03T15:00:47;2.95;;;1.60;;
29812;SDS011;16707;48.106;11.548;2022-07-03T15:03:28;1.77;;;1.40;;
29812;SDS011;16707;48.106;11.548;2022-07-03T15:06:00;2.05;;;1.50;;
29812;SDS011;16707;48.106;11.548;2022-07-03T15:11:34;2.20;;;1.42;;
29812;SDS011;16707;48.106;11.548;2022-07-03T15:14:32;1.38;;;1.27;;
29812;SDS011;16707;48.106;11.548;2022-07-03T15:17:08;1.52;;;1.38;;
29812;SDS011;16707;48.106;11.548;2022-07-03T15:19:39;1.80;;;1.67;;
29812;SDS011;16707;48.106;11.548;2022-07-03T15:22:16;1.52;;;1.38;;
29812;SDS011;16707;48.106;11.548;2022-07-03T15:24:51;1.50;;;1.40;;
29812;SDS011;16707;48.106;11.548;2022-07-03T15:27:21;2.10;;;1.43;;
29812;SDS011;16707;48.106;11.548;2022-07-03T15:29:53;2.03;;;1.60;;